createdAt,value
2022-10-19T00:00:48.903Z,100.00
2022-10-19T00:03:56.386Z,100.00
2022-10-19T00:07:02.067Z,100.00
2022-10-19T00:10:07.827Z,100.00
2022-10-19T00:13:13.642Z,100.00
2022-10-19T00:16:20.146Z,100.00
2022-10-19T00:19:28.074Z,100.00
2022-10-19T00:22:33.716Z,100.00
2022-10-19T00:25:39.323Z,100.00
2022-10-19T00:28:45.547Z,100.00
2022-10-19T00:31:51.870Z,100.00
2022-10-19T00:34:56.936Z,100.00
2022-10-19T00:38:02.724Z,100.00
2022-10-19T00:41:07.919Z,100.00
2022-10-19T00:44:13.152Z,100.00
2022-10-19T00:47:23.403Z,100.00
2022-10-19T00:50:29.925Z,100.00
2022-10-19T00:53:37.171Z,100.00
2022-10-19T00:56:46.379Z,100.00
2022-10-19T00:59:52.416Z,100.00
2022-10-19T01:02:59.281Z,100.00
2022-10-19T01:06:05.073Z,100.00
2022-10-19T01:09:10.623Z,100.00
2022-10-19T01:12:32.818Z,100.00
2022-10-19T01:15:51.123Z,100.00
2022-10-19T01:19:41.203Z,100.00
2022-10-19T01:23:10.701Z,100.00
2022-10-19T01:26:22.035Z,100.00
2022-10-19T01:29:33.373Z,100.00
2022-10-19T01:32:51.957Z,100.00
2022-10-19T01:36:15.747Z,100.00
2022-10-19T01:39:52.412Z,100.00
2022-10-19T01:43:09.768Z,100.00
2022-10-19T01:46:39.034Z,100.00
2022-10-19T01:49:54.323Z,100.00
2022-10-19T01:53:00.360Z,100.00
2022-10-19T01:56:07.915Z,100.00
2022-10-19T01:59:16.049Z,100.00
2022-10-19T02:02:23.405Z,100.00
2022-10-19T02:05:33.377Z,100.00
2022-10-19T02:08:45.057Z,100.00
2022-10-19T02:12:01.499Z,100.00
2022-10-19T02:15:14.836Z,100.00
2022-10-19T02:18:31.562Z,100.00
2022-10-19T02:21:37.156Z,100.00
2022-10-19T02:24:42.932Z,100.00
2022-10-19T02:27:48.749Z,100.00
2022-10-19T02:30:54.472Z,100.00
2022-10-19T02:34:00.015Z,100.00
2022-10-19T02:37:06.272Z,100.00
2022-10-19T02:40:12.684Z,100.00
2022-10-19T02:43:21.851Z,100.00
2022-10-19T02:46:42.916Z,100.00
2022-10-19T02:49:49.353Z,100.00
2022-10-19T02:52:55.030Z,100.00
2022-10-19T02:56:00.656Z,100.00
2022-10-19T02:59:06.171Z,100.00
2022-10-19T03:02:12.795Z,100.00
2022-10-19T03:05:18.401Z,100.00
2022-10-19T03:08:23.984Z,100.00
2022-10-19T03:11:29.690Z,100.00
2022-10-19T03:14:34.957Z,100.00
2022-10-19T03:17:40.750Z,100.00
2022-10-19T03:20:46.093Z,100.00
2022-10-19T03:23:52.140Z,100.00
2022-10-19T03:26:57.622Z,100.00
2022-10-19T03:30:03.786Z,100.00
2022-10-19T03:33:09.139Z,100.00
2022-10-19T03:36:20.232Z,100.00
2022-10-19T03:39:26.160Z,100.00
2022-10-19T03:42:31.896Z,100.00
2022-10-19T03:45:37.699Z,100.00
2022-10-19T03:48:44.056Z,100.00
2022-10-19T03:51:49.627Z,100.00
2022-10-19T03:54:54.853Z,100.00
2022-10-19T03:58:00.277Z,100.00
2022-10-19T04:01:21.715Z,100.00
2022-10-19T04:04:27.185Z,100.00
2022-10-19T04:07:33.508Z,100.00
2022-10-19T04:10:39.458Z,100.00
2022-10-19T04:13:44.961Z,100.00
2022-10-19T04:16:50.882Z,100.00
2022-10-19T04:19:56.123Z,100.00
2022-10-19T04:23:01.566Z,100.00
2022-10-19T04:26:08.384Z,100.00
2022-10-19T04:29:16.208Z,100.00
2022-10-19T04:32:21.400Z,100.00
2022-10-19T04:35:27.027Z,100.00
2022-10-19T04:38:33.676Z,100.00
2022-10-19T04:41:39.658Z,100.00
2022-10-19T04:44:45.449Z,100.00
2022-10-19T04:47:51.098Z,100.00
2022-10-19T04:50:57.105Z,100.00
2022-10-19T04:54:04.231Z,100.00
2022-10-19T04:57:09.542Z,100.00
2022-10-19T05:00:15.714Z,100.00
2022-10-19T05:03:21.987Z,100.00
2022-10-19T05:06:28.303Z,100.00
2022-10-19T05:09:33.880Z,100.00
2022-10-19T05:12:39.747Z,100.00
2022-10-19T05:15:56.559Z,100.00
2022-10-19T05:19:02.360Z,100.00
2022-10-19T05:22:07.414Z,100.00
2022-10-19T05:25:12.670Z,100.00
2022-10-19T05:28:17.753Z,100.00
2022-10-19T05:31:25.467Z,100.00
2022-10-19T05:34:30.636Z,100.00
2022-10-19T05:37:36.479Z,100.00
2022-10-19T05:40:49.197Z,100.00
2022-10-19T05:43:59.710Z,100.00
2022-10-19T05:47:05.452Z,100.00
2022-10-19T05:50:10.832Z,100.00
2022-10-19T05:53:16.526Z,100.00
2022-10-19T05:56:26.960Z,100.00
2022-10-19T05:59:32.562Z,100.00
2022-10-19T06:02:38.208Z,100.00
2022-10-19T06:05:43.707Z,100.00
2022-10-19T06:08:50.287Z,100.00
2022-10-19T06:11:55.737Z,100.00
2022-10-19T06:15:01.056Z,100.00
2022-10-19T06:18:09.074Z,100.00
2022-10-19T06:21:18.273Z,100.00
2022-10-19T06:24:23.768Z,100.00
2022-10-19T06:27:29.669Z,100.00
2022-10-19T06:30:34.959Z,100.00
2022-10-19T06:33:41.155Z,100.00
2022-10-19T06:36:46.752Z,100.00
2022-10-19T06:39:52.642Z,100.00
2022-10-19T06:42:59.158Z,100.00
2022-10-19T06:46:10.117Z,100.00
2022-10-19T06:49:15.922Z,100.00
2022-10-19T06:52:21.776Z,100.00
2022-10-19T06:55:27.652Z,100.00
2022-10-19T06:58:39.043Z,100.00
2022-10-19T07:01:44.591Z,100.00
2022-10-19T07:04:50.193Z,100.00
2022-10-19T07:07:57.342Z,100.00
2022-10-19T07:11:06.609Z,100.00
2022-10-19T07:14:12.091Z,100.00
2022-10-19T07:17:17.818Z,100.00
2022-10-19T07:20:23.065Z,100.00
2022-10-19T07:23:30.391Z,100.00
2022-10-19T07:26:36.359Z,100.00
2022-10-19T07:29:41.862Z,100.00
2022-10-19T07:32:47.621Z,100.00
2022-10-19T07:35:59.610Z,100.00
2022-10-19T07:39:06.542Z,100.00
2022-10-19T07:42:12.159Z,100.00
2022-10-19T07:45:17.879Z,100.00
2022-10-19T07:48:24.387Z,100.00
2022-10-19T07:51:30.261Z,100.00
2022-10-19T07:54:35.949Z,100.00
2022-10-19T07:57:43.650Z,100.00
2022-10-19T08:00:51.022Z,100.00
2022-10-19T08:07:24.163Z,100.00
2022-10-19T08:10:30.004Z,100.00
2022-10-19T08:13:35.974Z,100.00
2022-10-19T08:16:44.618Z,100.00
2022-10-19T08:19:50.101Z,100.00
2022-10-19T08:22:58.121Z,100.00
2022-10-19T08:26:04.963Z,100.00
2022-10-19T08:29:16.173Z,100.00
2022-10-19T08:32:22.229Z,100.00
2022-10-19T08:35:27.619Z,100.00
2022-10-19T08:38:33.115Z,100.00
2022-10-19T08:41:41.669Z,100.00
2022-10-19T08:45:01.926Z,100.00
2022-10-19T08:48:18.897Z,100.00
2022-10-19T08:51:24.780Z,100.00
2022-10-19T08:54:49.205Z,100.00
2022-10-19T08:58:05.541Z,100.00
2022-10-19T09:01:45.233Z,100.00
2022-10-19T09:05:02.607Z,100.00
2022-10-19T09:08:15.303Z,100.00
2022-10-19T09:11:26.271Z,100.00
2022-10-19T09:14:34.078Z,100.00
2022-10-19T09:17:39.719Z,100.00
2022-10-19T09:20:51.912Z,100.00
2022-10-19T09:24:07.051Z,100.00
2022-10-19T09:27:30.837Z,100.00
2022-10-19T09:30:39.439Z,100.00
2022-10-19T09:33:52.457Z,100.00
2022-10-19T09:36:59.982Z,100.00
2022-10-19T09:40:07.522Z,100.00
2022-10-19T09:43:20.246Z,100.00
2022-10-19T09:46:42.353Z,100.00
2022-10-19T09:49:49.486Z,100.00
2022-10-19T09:53:01.565Z,100.00
2022-10-19T09:56:09.424Z,100.00
2022-10-19T09:59:23.855Z,100.00
2022-10-19T10:02:34.050Z,100.00
2022-10-19T10:05:41.693Z,100.00
2022-10-19T10:08:59.282Z,100.00
2022-10-19T10:12:08.779Z,100.00
2022-10-19T10:15:26.942Z,100.00
2022-10-19T10:18:39.521Z,100.00
2022-10-19T10:21:54.930Z,100.00
2022-10-19T10:25:00.505Z,100.00
2022-10-19T10:28:26.980Z,100.00
2022-10-19T10:31:32.377Z,100.00
2022-10-19T10:35:02.078Z,100.00
2022-10-19T10:38:17.384Z,100.00
2022-10-19T10:41:24.028Z,100.00
2022-10-19T10:44:31.345Z,100.00
2022-10-19T10:47:39.704Z,100.00
2022-10-19T10:50:45.914Z,100.00
2022-10-19T10:53:51.376Z,100.00
2022-10-19T10:57:17.160Z,100.00
2022-10-19T11:00:24.440Z,97.27
2022-10-19T11:03:32.184Z,97.65
2022-10-19T11:06:44.871Z,95.77
2022-10-19T11:09:54.996Z,96.88
2022-10-19T11:13:18.855Z,96.51
2022-10-19T11:16:40.419Z,97.21
2022-10-19T11:19:45.987Z,98.80
2022-10-19T11:23:01.697Z,97.09
2022-10-19T11:26:25.723Z,95.08
2022-10-19T11:29:46.574Z,94.54
2022-10-19T11:33:13.137Z,94.95
2022-10-19T11:36:52.383Z,93.80
2022-10-19T11:40:19.846Z,92.83
2022-10-19T11:43:52.425Z,91.84
2022-10-19T11:47:12.749Z,90.09
2022-10-19T11:50:32.103Z,90.40
2022-10-19T11:53:56.602Z,90.25
2022-10-19T11:57:20.943Z,88.96
2022-10-19T12:00:45.604Z,88.98
2022-10-19T12:03:57.256Z,86.87
2022-10-19T12:07:51.530Z,85.66
2022-10-19T12:11:28.983Z,86.42
2022-10-19T12:14:41.917Z,87.62
2022-10-19T12:17:50.638Z,84.87
2022-10-19T12:20:59.860Z,86.38
2022-10-19T12:24:12.703Z,84.28
2022-10-19T12:27:27.303Z,84.39
2022-10-19T12:30:33.392Z,85.68
2022-10-19T12:33:58.900Z,85.10
2022-10-19T12:37:24.295Z,84.31
2022-10-19T12:40:46.482Z,82.51
2022-10-19T12:43:57.327Z,83.06
2022-10-19T12:47:18.001Z,82.97
2022-10-19T12:50:48.941Z,81.89
2022-10-19T12:54:09.838Z,81.96
2022-10-19T12:57:27.962Z,82.09
2022-10-19T13:00:36.486Z,81.25
2022-10-19T13:03:45.288Z,79.63
2022-10-19T13:07:01.885Z,81.25
2022-10-19T13:10:19.396Z,79.57
2022-10-19T13:13:53.807Z,80.25
2022-10-19T13:17:05.155Z,80.74
2022-10-19T13:20:16.605Z,80.41
2022-10-19T13:23:30.910Z,82.51
2022-10-19T13:26:36.874Z,80.08
2022-10-19T13:29:45.908Z,81.61
2022-10-19T13:32:51.472Z,81.80
2022-10-19T13:35:59.062Z,79.18
2022-10-19T13:39:06.286Z,78.93
2022-10-19T13:42:26.361Z,81.75
2022-10-19T13:45:31.777Z,80.56
2022-10-19T13:49:06.467Z,79.80
2022-10-19T13:52:37.735Z,78.38
2022-10-19T13:55:56.157Z,76.99
2022-10-19T13:59:28.377Z,75.18
2022-10-19T14:03:10.810Z,74.99
2022-10-19T14:06:24.754Z,76.49
2022-10-19T14:09:43.091Z,77.60
2022-10-19T14:12:50.092Z,77.83
2022-10-19T14:15:58.375Z,77.84
2022-10-19T14:19:03.629Z,78.37
2022-10-19T14:22:30.251Z,76.70
2022-10-19T14:25:36.186Z,77.05
2022-10-19T14:28:43.450Z,78.70
2022-10-19T14:31:49.480Z,78.69
2022-10-19T14:34:58.059Z,79.14
2022-10-19T14:38:06.014Z,79.10
2022-10-19T14:41:37.751Z,78.83
2022-10-19T14:44:44.864Z,78.52
2022-10-19T14:48:07.861Z,77.32
2022-10-19T14:51:45.385Z,77.29
2022-10-19T14:54:54.420Z,79.40
2022-10-19T14:57:59.966Z,78.82
2022-10-19T15:01:06.942Z,80.07
2022-10-19T15:04:12.275Z,80.21
2022-10-19T15:07:30.956Z,81.51
2022-10-19T15:10:46.033Z,82.02
2022-10-19T15:14:05.926Z,82.25
2022-10-19T15:17:32.173Z,82.45
2022-10-19T15:20:49.451Z,82.48
2022-10-19T15:24:25.805Z,83.58
2022-10-19T15:27:37.054Z,84.06
2022-10-19T15:30:42.058Z,84.49
2022-10-19T15:33:51.275Z,83.25
2022-10-19T15:37:08.296Z,84.11
2022-10-19T15:40:29.326Z,85.34
2022-10-19T15:43:44.574Z,85.89
2022-10-19T15:46:50.183Z,86.45
2022-10-19T15:50:01.677Z,86.67
2022-10-19T15:53:07.137Z,86.80
2022-10-19T15:56:15.080Z,87.84
2022-10-19T15:59:24.321Z,88.94
2022-10-19T16:02:29.588Z,90.11
2022-10-19T16:05:38.449Z,90.71
2022-10-19T16:08:47.423Z,91.42
2022-10-19T16:11:57.177Z,93.24
2022-10-19T16:15:02.534Z,94.34
2022-10-19T16:18:07.820Z,95.27
2022-10-19T16:21:13.687Z,96.14
2022-10-19T16:24:19.211Z,96.59
2022-10-19T16:27:24.891Z,96.99
2022-10-19T16:30:30.405Z,98.09
2022-10-19T16:33:36.079Z,98.53
2022-10-19T16:36:41.514Z,98.59
2022-10-19T16:39:46.746Z,99.42
2022-10-19T16:42:52.485Z,100.00
2022-10-19T16:45:58.357Z,100.00
2022-10-19T16:49:03.913Z,100.00
2022-10-19T16:52:14.993Z,100.00
2022-10-19T16:55:20.033Z,100.00
2022-10-19T16:58:25.454Z,100.00
2022-10-19T17:01:32.207Z,100.00
2022-10-19T17:04:37.986Z,100.00
2022-10-19T17:07:43.376Z,100.00
2022-10-19T17:10:49.033Z,100.00
2022-10-19T17:13:57.497Z,100.00
2022-10-19T17:17:03.188Z,100.00
2022-10-19T17:20:11.464Z,100.00
2022-10-19T17:23:16.710Z,100.00
2022-10-19T17:26:36.750Z,100.00
2022-10-19T17:29:42.331Z,100.00
2022-10-19T17:32:47.993Z,100.00
2022-10-19T17:35:53.809Z,100.00
2022-10-19T17:39:02.451Z,100.00
2022-10-19T17:42:07.785Z,100.00
2022-10-19T17:45:13.086Z,100.00
2022-10-19T17:48:19.512Z,100.00
2022-10-19T17:51:28.750Z,100.00
2022-10-19T17:54:43.485Z,100.00
2022-10-19T17:58:00.121Z,100.00
2022-10-19T18:01:06.631Z,100.00
2022-10-19T18:04:12.513Z,100.00
2022-10-19T18:07:19.280Z,100.00
2022-10-19T18:10:24.592Z,100.00
2022-10-19T18:13:31.602Z,100.00
2022-10-19T18:16:47.487Z,100.00
2022-10-19T18:19:52.867Z,100.00
2022-10-19T18:22:58.247Z,100.00
2022-10-19T18:26:12.661Z,100.00
2022-10-19T18:29:24.315Z,100.00
2022-10-19T18:32:29.881Z,100.00
2022-10-19T18:35:37.850Z,100.00
2022-10-19T18:38:43.327Z,100.00
2022-10-19T18:41:56.569Z,100.00
2022-10-19T18:45:01.825Z,100.00
2022-10-19T18:48:06.994Z,100.00
2022-10-19T18:51:12.418Z,100.00
2022-10-19T18:54:17.917Z,100.00
2022-10-19T18:57:25.485Z,100.00
2022-10-19T19:00:32.894Z,100.00
2022-10-19T19:03:40.856Z,100.00
2022-10-19T19:06:46.482Z,100.00
2022-10-19T19:09:52.455Z,100.00
2022-10-19T19:12:58.566Z,100.00
2022-10-19T19:16:06.449Z,100.00
2022-10-19T19:19:16.559Z,100.00
2022-10-19T19:22:26.875Z,100.00
2022-10-19T19:25:33.516Z,100.00
2022-10-19T19:28:42.274Z,100.00
2022-10-19T19:31:48.891Z,100.00
2022-10-19T19:34:55.084Z,100.00
2022-10-19T19:38:01.654Z,100.00
2022-10-19T19:41:10.688Z,100.00
2022-10-19T19:44:18.848Z,100.00
2022-10-19T19:47:25.500Z,100.00
2022-10-19T19:50:34.614Z,100.00
2022-10-19T19:53:42.469Z,100.00
2022-10-19T19:56:52.619Z,100.00
2022-10-19T19:59:58.053Z,100.00
2022-10-19T20:03:03.519Z,100.00
2022-10-19T20:06:10.658Z,100.00
2022-10-19T20:09:17.086Z,100.00
2022-10-19T20:12:22.719Z,100.00
2022-10-19T20:15:28.284Z,100.00
2022-10-19T20:18:34.740Z,100.00
2022-10-19T20:21:41.222Z,100.00
2022-10-19T20:24:46.664Z,100.00
2022-10-19T20:27:51.874Z,100.00
2022-10-19T20:31:08.654Z,100.00
2022-10-19T20:34:14.303Z,100.00
2022-10-19T20:37:21.146Z,100.00
2022-10-19T20:40:27.146Z,100.00
2022-10-19T20:43:34.002Z,100.00
2022-10-19T20:46:39.322Z,100.00
2022-10-19T20:49:44.780Z,100.00
2022-10-19T20:52:50.500Z,100.00
2022-10-19T20:55:55.802Z,100.00
2022-10-19T20:59:30.650Z,100.00
2022-10-19T21:02:36.840Z,100.00
2022-10-19T21:05:42.549Z,100.00
2022-10-19T21:08:48.067Z,100.00
2022-10-19T21:11:53.807Z,100.00
2022-10-19T21:14:59.255Z,100.00
2022-10-19T21:18:04.568Z,100.00
2022-10-19T21:21:21.694Z,100.00
2022-10-19T21:24:32.370Z,100.00
2022-10-19T21:27:38.029Z,100.00
2022-10-19T21:30:44.058Z,100.00
2022-10-19T21:33:51.259Z,100.00
2022-10-19T21:36:57.027Z,100.00
2022-10-19T21:40:03.959Z,100.00
2022-10-19T21:43:11.599Z,100.00
2022-10-19T21:46:19.552Z,100.00
2022-10-19T21:49:25.234Z,100.00
2022-10-19T21:52:30.647Z,100.00
2022-10-19T21:55:36.820Z,100.00
2022-10-19T21:58:50.687Z,100.00
2022-10-19T22:01:56.542Z,100.00
2022-10-19T22:05:02.207Z,100.00
2022-10-19T22:08:07.458Z,100.00
2022-10-19T22:11:14.474Z,100.00
2022-10-19T22:14:21.701Z,100.00
2022-10-19T22:17:26.926Z,100.00
2022-10-19T22:20:34.181Z,100.00
2022-10-19T22:23:40.254Z,100.00
2022-10-19T22:26:48.025Z,100.00
2022-10-19T22:29:54.328Z,100.00
2022-10-19T22:32:59.648Z,100.00
2022-10-19T22:36:07.823Z,100.00
2022-10-19T22:39:14.183Z,100.00
2022-10-19T22:42:19.561Z,100.00
2022-10-19T22:45:25.089Z,100.00
2022-10-19T22:48:30.686Z,100.00
2022-10-19T22:51:36.375Z,100.00
2022-10-19T22:54:41.753Z,100.00
2022-10-19T22:57:47.342Z,100.00
2022-10-19T23:01:08.330Z,100.00
2022-10-19T23:04:14.193Z,100.00
2022-10-19T23:07:19.654Z,100.00
2022-10-19T23:10:25.563Z,100.00
2022-10-19T23:13:31.221Z,100.00
2022-10-19T23:16:36.535Z,100.00
2022-10-19T23:19:41.629Z,100.00
2022-10-19T23:22:46.777Z,100.00
2022-10-19T23:26:04.100Z,100.00
2022-10-19T23:29:09.294Z,100.00
2022-10-19T23:32:14.380Z,100.00
2022-10-19T23:35:19.486Z,100.00
2022-10-19T23:38:24.950Z,100.00
2022-10-19T23:41:30.186Z,100.00
2022-10-19T23:44:35.454Z,100.00
2022-10-19T23:47:41.278Z,100.00
2022-10-19T23:50:46.665Z,100.00
2022-10-19T23:53:53.233Z,100.00
2022-10-19T23:56:58.562Z,100.00
